sensor_id;sensor_type;location;lat;lon;timestamp;pressure;altitude;pressure_sealevel;temperature;humidity
75072;BME280;63651;55.728;38.022;2023-01-10T00:03:18;101580.16;;;4.49;35.53
75072;BME280;63651;55.728;38.022;2023-01-10T00:08:19;101548.06;;;4.35;35.82
75072;BME280;63651;55.728;38.022;2023-01-10T00:13:20;101573.44;;;4.55;35.22
75072;BME280;63651;55.728;38.022;2023-01-10T00:18:24;101557.66;;;4.50;35.13
75072;BME280;63651;55.728;38.022;2023-01-10T00:23:25;101554.84;;;4.52;35.31
75072;BME280;63651;55.728;38.022;2023-01-10T00:28:26;101559.25;;;4.53;35.12
75072;BME280;63651;55.728;38.022;2023-01-10T00:33:29;101560.00;;;4.55;35.13
75072;BME280;63651;55.728;38.022;2023-01-10T00:38:32;101564.28;;;4.58;34.79
75072;BME280;63651;55.728;38.022;2023-01-10T00:43:34;101543.00;;;4.55;35.02
75072;BME280;63651;55.728;38.022;2023-01-10T00:48:54;101537.72;;;4.53;35.03
75072;BME280;63651;55.728;38.022;2023-01-10T00:53:57;101537.38;;;4.58;34.46
75072;BME280;63651;55.728;38.022;2023-01-10T00:58:58;101527.94;;;4.52;34.40
75072;BME280;63651;55.728;38.022;2023-01-10T01:03:59;101539.56;;;4.53;34.31
75072;BME280;63651;55.728;38.022;2023-01-10T01:09:00;101535.78;;;4.55;35.26
75072;BME280;63651;55.728;38.022;2023-01-10T01:14:01;101516.09;;;4.55;34.36
75072;BME280;63651;55.728;38.022;2023-01-10T01:19:02;101512.53;;;4.54;34.37
75072;BME280;63651;55.728;38.022;2023-01-10T01:24:03;101518.41;;;4.59;34.26
75072;BME280;63651;55.728;38.022;2023-01-10T01:29:04;101515.22;;;4.54;34.50
75072;BME280;63651;55.728;38.022;2023-01-10T01:34:05;101507.25;;;4.53;34.53
75072;BME280;63651;55.728;38.022;2023-01-10T01:39:06;101507.53;;;4.61;33.63
75072;BME280;63651;55.728;38.022;2023-01-10T01:44:15;101501.41;;;4.59;33.77
75072;BME280;63651;55.728;38.022;2023-01-10T01:49:20;101483.06;;;4.53;34.00
75072;BME280;63651;55.728;38.022;2023-01-10T01:54:22;101490.28;;;4.63;34.70
75072;BME280;63651;55.728;38.022;2023-01-10T01:59:29;101466.19;;;4.73;34.11
75072;BME280;63651;55.728;38.022;2023-01-10T02:05:10;101480.38;;;4.64;34.33
75072;BME280;63651;55.728;38.022;2023-01-10T02:10:18;101448.94;;;4.53;34.03
75072;BME280;63651;55.728;38.022;2023-01-10T02:15:21;101486.63;;;4.64;33.73
75072;BME280;63651;55.728;38.022;2023-01-10T02:20:23;101498.88;;;4.68;33.62
75072;BME280;63651;55.728;38.022;2023-01-10T02:41:55;101515.50;;;4.73;34.30
75072;BME280;63651;55.728;38.022;2023-01-10T02:47:02;101512.81;;;4.73;33.26
75072;BME280;63651;55.728;38.022;2023-01-10T02:52:03;101514.53;;;4.74;34.04
75072;BME280;63651;55.728;38.022;2023-01-10T03:07:38;101491.59;;;5.26;32.63
75072;BME280;63651;55.728;38.022;2023-01-10T03:12:49;101497.44;;;5.09;32.20
75072;BME280;63651;55.728;38.022;2023-01-10T03:17:55;101493.38;;;4.92;32.89
75072;BME280;63651;55.728;38.022;2023-01-10T03:23:00;101505.25;;;4.78;33.10
75072;BME280;63651;55.728;38.022;2023-01-10T03:28:10;101522.50;;;4.87;32.57
75072;BME280;63651;55.728;38.022;2023-01-10T03:33:15;101503.28;;;4.80;31.89
75072;BME280;63651;55.728;38.022;2023-01-10T03:38:28;101508.91;;;4.77;32.69
75072;BME280;63651;55.728;38.022;2023-01-10T03:43:45;101508.06;;;4.77;32.30
75072;BME280;63651;55.728;38.022;2023-01-10T03:49:08;101515.88;;;4.69;32.27
75072;BME280;63651;55.728;38.022;2023-01-10T03:54:10;101514.16;;;4.68;32.33
75072;BME280;63651;55.728;38.022;2023-01-10T03:59:12;101506.06;;;4.68;32.63
75072;BME280;63651;55.728;38.022;2023-01-10T04:04:13;101524.41;;;4.63;31.99
75072;BME280;63651;55.728;38.022;2023-01-10T04:09:14;101519.91;;;4.63;32.35
75072;BME280;63651;55.728;38.022;2023-01-10T04:14:15;101510.84;;;4.64;32.06
75072;BME280;63651;55.728;38.022;2023-01-10T04:19:16;101518.41;;;4.59;32.46
75072;BME280;63651;55.728;38.022;2023-01-10T04:24:17;101504.97;;;4.59;32.10
75072;BME280;63651;55.728;38.022;2023-01-10T04:29:17;101521.97;;;4.60;32.51
75072;BME280;63651;55.728;38.022;2023-01-10T04:34:19;101519.38;;;4.58;32.54
75072;BME280;63651;55.728;38.022;2023-01-10T04:39:21;101524.78;;;4.58;32.51
75072;BME280;63651;55.728;38.022;2023-01-10T04:44:22;101533.59;;;4.60;31.86
75072;BME280;63651;55.728;38.022;2023-01-10T04:49:23;101536.28;;;4.60;32.71
75072;BME280;63651;55.728;38.022;2023-01-10T04:54:24;101533.72;;;4.59;31.31
75072;BME280;63651;55.728;38.022;2023-01-10T04:59:25;101546.53;;;4.55;31.58
75072;BME280;63651;55.728;38.022;2023-01-10T05:04:26;101548.03;;;4.59;31.48
75072;BME280;63651;55.728;38.022;2023-01-10T05:09:27;101551.69;;;4.58;31.56
75072;BME280;63651;55.728;38.022;2023-01-10T05:14:30;101559.63;;;4.60;31.67
75072;BME280;63651;55.728;38.022;2023-01-10T05:19:31;101570.16;;;4.63;31.93
75072;BME280;63651;55.728;38.022;2023-01-10T05:24:32;101558.91;;;4.58;31.51
75072;BME280;63651;55.728;38.022;2023-01-10T05:29:33;101568.09;;;4.66;31.36
75072;BME280;63651;55.728;38.022;2023-01-10T05:34:34;101577.88;;;4.67;31.42
75072;BME280;63651;55.728;38.022;2023-01-10T05:39:35;101582.53;;;4.65;31.45
75072;BME280;63651;55.728;38.022;2023-01-10T05:44:37;101583.28;;;4.67;31.43
75072;BME280;63651;55.728;38.022;2023-01-10T05:49:38;101574.81;;;4.61;31.74
75072;BME280;63651;55.728;38.022;2023-01-10T05:54:39;101589.41;;;4.69;31.46
75072;BME280;63651;55.728;38.022;2023-01-10T05:59:40;101609.09;;;4.70;31.37
75072;BME280;63651;55.728;38.022;2023-01-10T06:04:41;101616.44;;;4.68;31.19
75072;BME280;63651;55.728;38.022;2023-01-10T06:09:43;101614.84;;;4.65;30.85
75072;BME280;63651;55.728;38.022;2023-01-10T06:14:44;101626.47;;;4.66;30.41
75072;BME280;63651;55.728;38.022;2023-01-10T06:19:45;101625.38;;;4.68;31.00
75072;BME280;63651;55.728;38.022;2023-01-10T06:24:49;101641.41;;;4.70;30.24
75072;BME280;63651;55.728;38.022;2023-01-10T06:29:50;101647.63;;;4.70;30.47
75072;BME280;63651;55.728;38.022;2023-01-10T06:34:51;101626.47;;;4.66;29.95
75072;BME280;63651;55.728;38.022;2023-01-10T06:39:52;101662.34;;;4.77;31.04
75072;BME280;63651;55.728;38.022;2023-01-10T06:44:53;101669.69;;;4.75;30.83
75072;BME280;63651;55.728;38.022;2023-01-10T06:49:54;101670.31;;;4.79;31.56
75072;BME280;63651;55.728;38.022;2023-01-10T06:54:55;101660.63;;;4.76;30.94
75072;BME280;63651;55.728;38.022;2023-01-10T06:59:56;101668.47;;;4.79;31.34
75072;BME280;63651;55.728;38.022;2023-01-10T07:04:57;101670.47;;;4.89;30.60
75072;BME280;63651;55.728;38.022;2023-01-10T07:09:58;101673.91;;;4.91;31.24
75072;BME280;63651;55.728;38.022;2023-01-10T07:14:59;101669.03;;;4.96;31.56
75072;BME280;63651;55.728;38.022;2023-01-10T07:20:00;101653.50;;;6.24;35.26
75072;BME280;63651;55.728;38.022;2023-01-10T07:25:01;101641.81;;;11.02;27.58
75072;BME280;63651;55.728;38.022;2023-01-10T07:30:03;101646.22;;;11.91;26.46
75072;BME280;63651;55.728;38.022;2023-01-10T07:35:04;101651.03;;;12.47;25.30
75072;BME280;63651;55.728;38.022;2023-01-10T07:40:06;101642.75;;;12.97;24.82
75072;BME280;63651;55.728;38.022;2023-01-10T07:45:07;101659.44;;;12.11;24.97
75072;BME280;63651;55.728;38.022;2023-01-10T07:50:09;101660.09;;;10.19;24.42
75072;BME280;63651;55.728;38.022;2023-01-10T07:55:10;101649.69;;;9.31;26.44
75072;BME280;63651;55.728;38.022;2023-01-10T08:00:12;101663.25;;;8.73;26.51
75072;BME280;63651;55.728;38.022;2023-01-10T08:05:13;101665.44;;;8.29;25.98
75072;BME280;63651;55.728;38.022;2023-01-10T08:10:15;101663.88;;;7.87;26.14
75072;BME280;63651;55.728;38.022;2023-01-10T08:15:16;101666.09;;;7.51;26.58
75072;BME280;63651;55.728;38.022;2023-01-10T08:20:20;101666.44;;;7.16;26.31
75072;BME280;63651;55.728;38.022;2023-01-10T08:25:21;101662.13;;;6.93;27.00
75072;BME280;63651;55.728;38.022;2023-01-10T08:30:22;101668.69;;;6.79;27.11
75072;BME280;63651;55.728;38.022;2023-01-10T08:35:23;101670.13;;;6.62;26.93
75072;BME280;63651;55.728;38.022;2023-01-10T08:40:25;101653.56;;;6.45;26.59
75072;BME280;63651;55.728;38.022;2023-01-10T08:45:26;101668.94;;;6.33;26.36
75072;BME280;63651;55.728;38.022;2023-01-10T08:50:27;101673.25;;;6.24;27.52
75072;BME280;63651;55.728;38.022;2023-01-10T08:55:29;101666.28;;;6.10;26.71
75072;BME280;63651;55.728;38.022;2023-01-10T09:00:31;101671.41;;;6.14;27.39
75072;BME280;63651;55.728;38.022;2023-01-10T09:05:32;101668.84;;;6.12;27.12
75072;BME280;63651;55.728;38.022;2023-01-10T09:10:33;101661.63;;;6.01;26.75
75072;BME280;63651;55.728;38.022;2023-01-10T09:15:34;101660.16;;;5.97;27.60
75072;BME280;63651;55.728;38.022;2023-01-10T09:20:37;101637.94;;;5.83;26.96
75072;BME280;63651;55.728;38.022;2023-01-10T09:25:39;101623.13;;;10.36;30.32
75072;BME280;63651;55.728;38.022;2023-01-10T09:30:40;101629.31;;;8.00;29.57
75072;BME280;63651;55.728;38.022;2023-01-10T09:35:42;101634.09;;;7.56;31.36
75072;BME280;63651;55.728;38.022;2023-01-10T09:41:09;101644.88;;;7.26;32.23
75072;BME280;63651;55.728;38.022;2023-01-10T09:51:38;101642.50;;;6.91;33.88
75072;BME280;63651;55.728;38.022;2023-01-10T09:56:41;101638.59;;;6.84;34.39
75072;BME280;63651;55.728;38.022;2023-01-10T10:01:42;101643.66;;;6.77;34.44
75072;BME280;63651;55.728;38.022;2023-01-10T10:06:50;101648.09;;;6.78;34.72
75072;BME280;63651;55.728;38.022;2023-01-10T10:12:33;101651.78;;;6.77;35.49
75072;BME280;63651;55.728;38.022;2023-01-10T10:34:19;101648.25;;;6.65;35.11
75072;BME280;63651;55.728;38.022;2023-01-10T10:45:04;101640.06;;;6.56;35.76
75072;BME280;63651;55.728;38.022;2023-01-10T10:55:17;101626.09;;;6.39;35.42
75072;BME280;63651;55.728;38.022;2023-01-10T11:00:20;101623.53;;;6.38;36.45
75072;BME280;63651;55.728;38.022;2023-01-10T11:05:43;101594.63;;;6.18;36.71
75072;BME280;63651;55.728;38.022;2023-01-10T11:10:48;101633.38;;;6.28;36.24
75072;BME280;63651;55.728;38.022;2023-01-10T11:15:52;101623.56;;;6.27;36.35
75072;BME280;63651;55.728;38.022;2023-01-10T11:25:58;101623.94;;;6.22;36.70
75072;BME280;63651;55.728;38.022;2023-01-10T11:31:01;101626.91;;;6.19;36.30
75072;BME280;63651;55.728;38.022;2023-01-10T11:36:05;101638.41;;;6.21;36.78
75072;BME280;63651;55.728;38.022;2023-01-10T11:46:21;101635.13;;;6.18;36.99
75072;BME280;63651;55.728;38.022;2023-01-10T11:51:27;101649.22;;;6.21;36.37
75072;BME280;63651;55.728;38.022;2023-01-10T11:56:34;101634.28;;;6.06;37.84
75072;BME280;63651;55.728;38.022;2023-01-10T12:01:54;101661.84;;;6.21;36.53
75072;BME280;63651;55.728;38.022;2023-01-10T12:07:03;101648.97;;;6.13;38.32
75072;BME280;63651;55.728;38.022;2023-01-10T12:12:22;101654.97;;;6.17;37.61
75072;BME280;63651;55.728;38.022;2023-01-10T12:17:29;101669.84;;;6.11;37.60
75072;BME280;63651;55.728;38.022;2023-01-10T12:22:37;101665.16;;;6.13;37.37
75072;BME280;63651;55.728;38.022;2023-01-10T12:27:39;101668.13;;;6.10;36.53
75072;BME280;63651;55.728;38.022;2023-01-10T12:32:46;101663.81;;;6.07;37.54
75072;BME280;63651;55.728;38.022;2023-01-10T12:38:06;101665.19;;;6.02;38.05
75072;BME280;63651;55.728;38.022;2023-01-10T12:43:32;101662.59;;;6.00;37.68
75072;BME280;63651;55.728;38.022;2023-01-10T12:49:13;101674.25;;;6.01;37.08
75072;BME280;63651;55.728;38.022;2023-01-10T12:54:20;101682.47;;;5.99;37.53
75072;BME280;63651;55.728;38.022;2023-01-10T12:59:27;101681.25;;;5.92;36.92
75072;BME280;63651;55.728;38.022;2023-01-10T13:04:36;101663.69;;;5.87;37.13
75072;BME280;63651;55.728;38.022;2023-01-10T13:09:40;101663.69;;;5.87;37.86
75072;BME280;63651;55.728;38.022;2023-01-10T13:15:29;101678.03;;;5.87;38.59
75072;BME280;63651;55.728;38.022;2023-01-10T13:25:20;101688.94;;;5.86;37.62
75072;BME280;63651;55.728;38.022;2023-01-10T13:30:37;101678.06;;;5.98;37.07
75072;BME280;63651;55.728;38.022;2023-01-10T13:35:43;101657.44;;;6.08;37.81
75072;BME280;63651;55.728;38.022;2023-01-10T13:41:04;101669.69;;;6.24;37.35
75072;BME280;63651;55.728;38.022;2023-01-10T13:51:19;101670.88;;;6.42;37.41
75072;BME280;63651;55.728;38.022;2023-01-10T13:56:31;101677.38;;;6.51;35.71
75072;BME280;63651;55.728;38.022;2023-01-10T14:01:35;101658.13;;;6.44;35.31
75072;BME280;63651;55.728;38.022;2023-01-10T14:12:33;101656.22;;;6.67;36.17
75072;BME280;63651;55.728;38.022;2023-01-10T14:17:36;101658.06;;;6.66;36.07
75072;BME280;63651;55.728;38.022;2023-01-10T14:22:38;101677.06;;;6.76;35.65
75072;BME280;63651;55.728;38.022;2023-01-10T14:27:45;101642.59;;;6.68;35.37
75072;BME280;63651;55.728;38.022;2023-01-10T14:32:49;101646.97;;;6.81;34.51
75072;BME280;63651;55.728;38.022;2023-01-10T14:37:57;101663.84;;;6.94;34.44
75072;BME280;63651;55.728;38.022;2023-01-10T14:43:06;101669.78;;;6.88;34.04
75072;BME280;63651;55.728;38.022;2023-01-10T14:48:51;101670.97;;;6.95;33.57
75072;BME280;63651;55.728;38.022;2023-01-10T14:54:13;101656.00;;;6.91;34.44
75072;BME280;63651;55.728;38.022;2023-01-10T15:04:21;101675.38;;;6.96;33.54
75072;BME280;63651;55.728;38.022;2023-01-10T15:09:23;101684.81;;;7.01;33.52
75072;BME280;63651;55.728;38.022;2023-01-10T15:14:25;101671.16;;;7.03;33.72
75072;BME280;63651;55.728;38.022;2023-01-10T15:19:36;101684.88;;;7.11;32.90
75072;BME280;63651;55.728;38.022;2023-01-10T15:24:39;101683.63;;;7.15;32.96
75072;BME280;63651;55.728;38.022;2023-01-10T15:29:43;101677.38;;;7.15;32.74
75072;BME280;63651;55.728;38.022;2023-01-10T15:34:51;101681.78;;;7.16;32.63
75072;BME280;63651;55.728;38.022;2023-01-10T15:39:54;101682.91;;;7.13;31.99
75072;BME280;63651;55.728;38.022;2023-01-10T15:44:55;101667.41;;;7.15;32.39
75072;BME280;63651;55.728;38.022;2023-01-10T15:49:58;101672.16;;;7.23;31.66
75072;BME280;63651;55.728;38.022;2023-01-10T15:55:00;101670.47;;;7.22;32.69
75072;BME280;63651;55.728;38.022;2023-01-10T16:00:01;101677.91;;;7.29;31.91
75072;BME280;63651;55.728;38.022;2023-01-10T16:05:14;101667.16;;;7.18;31.58
75072;BME280;63651;55.728;38.022;2023-01-10T16:10:23;101683.31;;;7.29;31.43
75072;BME280;63651;55.728;38.022;2023-01-10T16:15:28;101684.31;;;7.28;31.19
75072;BME280;63651;55.728;38.022;2023-01-10T16:20:30;101694.25;;;7.28;30.83
75072;BME280;63651;55.728;38.022;2023-01-10T16:25:37;101676.53;;;7.35;30.20
75072;BME280;63651;55.728;38.022;2023-01-10T16:30:44;101683.03;;;7.32;30.97
75072;BME280;63651;55.728;38.022;2023-01-10T16:35:51;101658.38;;;7.26;30.92
75072;BME280;63651;55.728;38.022;2023-01-10T16:40:56;101676.38;;;7.36;30.59
75072;BME280;63651;55.728;38.022;2023-01-10T16:45:58;101681.41;;;7.41;30.56
75072;BME280;63651;55.728;38.022;2023-01-10T16:51:11;101662.28;;;7.33;30.23
75072;BME280;63651;55.728;38.022;2023-01-10T16:56:16;101666.56;;;7.35;30.79
75072;BME280;63651;55.728;38.022;2023-01-10T17:01:20;101677.16;;;7.48;29.94
75072;BME280;63651;55.728;38.022;2023-01-10T17:06:23;101680.13;;;7.45;30.22
75072;BME280;63651;55.728;38.022;2023-01-10T17:11:28;101669.72;;;7.41;30.35
75072;BME280;63651;55.728;38.022;2023-01-10T17:16:31;101673.75;;;7.46;29.85
75072;BME280;63651;55.728;38.022;2023-01-10T17:21:32;101687.00;;;7.49;29.86
75072;BME280;63651;55.728;38.022;2023-01-10T17:26:33;101677.03;;;7.50;30.04
75072;BME280;63651;55.728;38.022;2023-01-10T17:31:35;101682.72;;;7.47;29.91
75072;BME280;63651;55.728;38.022;2023-01-10T17:36:36;101691.69;;;7.47;29.87
75072;BME280;63651;55.728;38.022;2023-01-10T17:41:39;101683.75;;;7.55;29.52
75072;BME280;63651;55.728;38.022;2023-01-10T17:46:40;101660.81;;;7.50;29.39
75072;BME280;63651;55.728;38.022;2023-01-10T17:51:41;101681.31;;;7.52;28.94
75072;BME280;63651;55.728;38.022;2023-01-10T17:56:42;101681.47;;;7.51;29.84
75072;BME280;63651;55.728;38.022;2023-01-10T18:01:43;101659.69;;;7.52;29.25
75072;BME280;63651;55.728;38.022;2023-01-10T18:06:44;101665.22;;;7.51;29.40
75072;BME280;63651;55.728;38.022;2023-01-10T18:11:45;101662.13;;;7.55;29.30
75072;BME280;63651;55.728;38.022;2023-01-10T18:16:47;101671.94;;;7.56;29.09
75072;BME280;63651;55.728;38.022;2023-01-10T18:21:48;101662.97;;;7.56;29.41
75072;BME280;63651;55.728;38.022;2023-01-10T18:26:49;101655.72;;;7.56;29.73
75072;BME280;63651;55.728;38.022;2023-01-10T18:31:50;101665.88;;;7.64;29.38
75072;BME280;63651;55.728;38.022;2023-01-10T18:36:51;101660.72;;;7.61;28.92
75072;BME280;63651;55.728;38.022;2023-01-10T18:41:58;101656.75;;;7.65;29.29
75072;BME280;63651;55.728;38.022;2023-01-10T18:46:59;101661.91;;;7.68;29.43
75072;BME280;63651;55.728;38.022;2023-01-10T18:52:00;101652.22;;;7.65;28.41
75072;BME280;63651;55.728;38.022;2023-01-10T18:57:01;101660.06;;;7.68;28.91
75072;BME280;63651;55.728;38.022;2023-01-10T19:02:02;101650.22;;;7.67;29.03
75072;BME280;63651;55.728;38.022;2023-01-10T19:07:03;101653.78;;;7.68;29.35
75072;BME280;63651;55.728;38.022;2023-01-10T19:12:04;101661.78;;;7.69;28.91
75072;BME280;63651;55.728;38.022;2023-01-10T19:17:05;101653.59;;;7.60;29.04
75072;BME280;63651;55.728;38.022;2023-01-10T19:22:07;101657.34;;;7.68;29.24
75072;BME280;63651;55.728;38.022;2023-01-10T19:27:08;101656.50;;;7.68;28.96
75072;BME280;63651;55.728;38.022;2023-01-10T19:32:09;101654.09;;;7.75;28.84
75072;BME280;63651;55.728;38.022;2023-01-10T19:37:10;101639.88;;;7.72;28.72
75072;BME280;63651;55.728;38.022;2023-01-10T19:42:11;101638.88;;;7.74;29.29
75072;BME280;63651;55.728;38.022;2023-01-10T19:47:12;101648.56;;;7.76;28.62
75072;BME280;63651;55.728;38.022;2023-01-10T19:52:15;101628.78;;;7.76;28.42
75072;BME280;63651;55.728;38.022;2023-01-10T19:57:16;101647.13;;;7.72;29.07
75072;BME280;63651;55.728;38.022;2023-01-10T20:02:17;101660.66;;;7.72;28.93
75072;BME280;63651;55.728;38.022;2023-01-10T20:07:19;101664.34;;;7.71;28.07
75072;BME280;63651;55.728;38.022;2023-01-10T20:12:20;101652.94;;;7.67;28.15
75072;BME280;63651;55.728;38.022;2023-01-10T20:17:21;101649.38;;;7.67;27.83
75072;BME280;63651;55.728;38.022;2023-01-10T20:22:23;101641.25;;;7.67;27.59
75072;BME280;63651;55.728;38.022;2023-01-10T20:27:24;101640.22;;;7.58;27.64
75072;BME280;63651;55.728;38.022;2023-01-10T20:32:25;101634.91;;;7.47;27.20
75072;BME280;63651;55.728;38.022;2023-01-10T20:37:26;101633.00;;;7.38;27.17
75072;BME280;63651;55.728;38.022;2023-01-10T20:42:27;101645.34;;;7.31;26.69
75072;BME280;63651;55.728;38.022;2023-01-10T20:47:31;101652.41;;;7.22;26.90
75072;BME280;63651;55.728;38.022;2023-01-10T20:52:33;101649.94;;;7.19;26.95
75072;BME280;63651;55.728;38.022;2023-01-10T20:57:34;101655.03;;;7.13;27.18
75072;BME280;63651;55.728;38.022;2023-01-10T21:02:35;101652.72;;;7.08;27.62
75072;BME280;63651;55.728;38.022;2023-01-10T21:07:36;101616.34;;;6.91;27.19
75072;BME280;63651;55.728;38.022;2023-01-10T21:12:37;101653.13;;;7.03;26.99
75072;BME280;63651;55.728;38.022;2023-01-10T21:17:38;101637.63;;;7.05;27.19
75072;BME280;63651;55.728;38.022;2023-01-10T21:22:41;101640.00;;;6.99;26.58
75072;BME280;63651;55.728;38.022;2023-01-10T21:27:42;101635.72;;;6.96;26.57
75072;BME280;63651;55.728;38.022;2023-01-10T21:32:44;101629.84;;;6.91;26.84
75072;BME280;63651;55.728;38.022;2023-01-10T21:37:45;101643.94;;;6.95;26.95
75072;BME280;63651;55.728;38.022;2023-01-10T21:42:46;101634.53;;;6.89;26.70
75072;BME280;63651;55.728;38.022;2023-01-10T21:47:47;101639.19;;;6.87;26.41
75072;BME280;63651;55.728;38.022;2023-01-10T21:52:49;101644.25;;;6.81;26.78
75072;BME280;63651;55.728;38.022;2023-01-10T21:57:53;101653.09;;;6.83;26.34
75072;BME280;63651;55.728;38.022;2023-01-10T22:02:54;101643.28;;;6.82;26.88
75072;BME280;63651;55.728;38.022;2023-01-10T22:07:57;101643.66;;;6.77;26.69
75072;BME280;63651;55.728;38.022;2023-01-10T22:12:58;101652.50;;;6.79;26.37
75072;BME280;63651;55.728;38.022;2023-01-10T22:17:59;101642.94;;;6.75;27.13
75072;BME280;63651;55.728;38.022;2023-01-10T22:23:08;101635.94;;;6.72;26.85
75072;BME280;63651;55.728;38.022;2023-01-10T22:28:09;101643.31;;;6.70;27.12
75072;BME280;63651;55.728;38.022;2023-01-10T22:33:12;101630.94;;;6.68;26.78
75072;BME280;63651;55.728;38.022;2023-01-10T22:38:13;101627.25;;;6.69;26.36
75072;BME280;63651;55.728;38.022;2023-01-10T22:43:14;101627.72;;;6.74;26.94
75072;BME280;63651;55.728;38.022;2023-01-10T22:48:15;101621.72;;;6.70;26.85
75072;BME280;63651;55.728;38.022;2023-01-10T22:53:16;101612.63;;;6.71;26.41
75072;BME280;63651;55.728;38.022;2023-01-10T22:58:17;101616.72;;;6.66;27.07
75072;BME280;63651;55.728;38.022;2023-01-10T23:03:18;101612.16;;;6.66;26.72
75072;BME280;63651;55.728;38.022;2023-01-10T23:08:20;101608.00;;;6.62;26.92
75072;BME280;63651;55.728;38.022;2023-01-10T23:13:22;101619.03;;;6.70;27.10
75072;BME280;63651;55.728;38.022;2023-01-10T23:18:24;101625.41;;;6.69;27.01
75072;BME280;63651;55.728;38.022;2023-01-10T23:23:25;101633.50;;;6.69;26.85
75072;BME280;63651;55.728;38.022;2023-01-10T23:28:32;101632.78;;;6.67;26.41
75072;BME280;63651;55.728;38.022;2023-01-10T23:33:34;101631.06;;;6.66;26.67
75072;BME280;63651;55.728;38.022;2023-01-10T23:38:35;101619.47;;;6.55;27.16
75072;BME280;63651;55.728;38.022;2023-01-10T23:43:36;101619.53;;;6.64;26.71
75072;BME280;63651;55.728;38.022;2023-01-10T23:48:37;101611.81;;;6.60;26.66
75072;BME280;63651;55.728;38.022;2023-01-10T23:53:39;101614.41;;;6.61;26.59
75072;BME280;63651;55.728;38.022;2023-01-10T23:58:40;101613.28;;;6.64;26.46
